sensor_id;sensor_type;location;lat;lon;timestamp;P1;durP1;ratioP1;P2;durP2;ratioP2
7173;SDS011;3628;48.654;8.932;2023-08-24T00:00:37;2.40;;;2.15;;
7173;SDS011;3628;48.654;8.932;2023-08-24T00:03:04;3.30;;;2.05;;
7173;SDS011;3628;48.654;8.932;2023-08-24T00:05:32;3.08;;;2.38;;
7173;SDS011;3628;48.654;8.932;2023-08-24T00:07:59;3.90;;;2.35;;
7173;SDS011;3628;48.654;8.932;2023-08-24T00:10:25;4.20;;;2.60;;
7173;SDS011;3628;48.654;8.932;2023-08-24T00:12:51;2.88;;;2.13;;
7173;SDS011;3628;48.654;8.932;2023-08-24T00:15:16;2.60;;;2.40;;
7173;SDS011;3628;48.654;8.932;2023-08-24T00:17:42;3.03;;;2.33;;
7173;SDS011;3628;48.654;8.932;2023-08-24T00:20:07;2.55;;;2.35;;
7173;SDS011;3628;48.654;8.932;2023-08-24T00:22:35;3.63;;;2.70;;
7173;SDS011;3628;48.654;8.932;2023-08-24T00:25:02;2.67;;;2.40;;
7173;SDS011;3628;48.654;8.932;2023-08-24T00:27:27;4.05;;;2.67;;
7173;SDS011;3628;48.654;8.932;2023-08-24T00:29:53;3.17;;;2.35;;
7173;SDS011;3628;48.654;8.932;2023-08-24T00:32:18;2.53;;;2.22;;
7173;SDS011;3628;48.654;8.932;2023-08-24T00:34:44;2.78;;;2.00;;
7173;SDS011;3628;48.654;8.932;2023-08-24T00:37:10;3.03;;;2.25;;
7173;SDS011;3628;48.654;8.932;2023-08-24T00:39:35;3.40;;;2.58;;
7173;SDS011;3628;48.654;8.932;2023-08-24T00:42:02;4.07;;;2.72;;
7173;SDS011;3628;48.654;8.932;2023-08-24T00:44:27;3.40;;;3.10;;
7173;SDS011;3628;48.654;8.932;2023-08-24T00:46:53;2.83;;;2.63;;
7173;SDS011;3628;48.654;8.932;2023-08-24T00:49:19;3.42;;;2.63;;
7173;SDS011;3628;48.654;8.932;2023-08-24T00:51:46;2.88;;;2.50;;
7173;SDS011;3628;48.654;8.932;2023-08-24T00:54:11;5.00;;;2.70;;
7173;SDS011;3628;48.654;8.932;2023-08-24T00:56:37;6.93;;;3.10;;
7173;SDS011;3628;48.654;8.932;2023-08-24T00:59:02;3.80;;;2.67;;
7173;SDS011;3628;48.654;8.932;2023-08-24T01:01:28;4.65;;;2.70;;
7173;SDS011;3628;48.654;8.932;2023-08-24T01:03:54;3.35;;;2.63;;
7173;SDS011;3628;48.654;8.932;2023-08-24T01:06:19;3.53;;;2.45;;
7173;SDS011;3628;48.654;8.932;2023-08-24T01:08:45;6.38;;;2.65;;
7173;SDS011;3628;48.654;8.932;2023-08-24T01:13:42;2.58;;;2.38;;
7173;SDS011;3628;48.654;8.932;2023-08-24T01:16:23;4.22;;;2.30;;
7173;SDS011;3628;48.654;8.932;2023-08-24T01:18:54;4.13;;;2.60;;
7173;SDS011;3628;48.654;8.932;2023-08-24T01:21:21;2.70;;;2.50;;
7173;SDS011;3628;48.654;8.932;2023-08-24T01:24:31;4.95;;;2.65;;
7173;SDS011;3628;48.654;8.932;2023-08-24T01:26:38;2.60;;;2.40;;
7173;SDS011;3628;48.654;8.932;2023-08-24T01:29:05;2.58;;;2.33;;
7173;SDS011;3628;48.654;8.932;2023-08-24T01:31:32;3.50;;;2.70;;
7173;SDS011;3628;48.654;8.932;2023-08-24T01:33:57;7.22;;;2.63;;
7173;SDS011;3628;48.654;8.932;2023-08-24T01:36:23;2.95;;;2.65;;
7173;SDS011;3628;48.654;8.932;2023-08-24T01:38:54;6.97;;;2.78;;
7173;SDS011;3628;48.654;8.932;2023-08-24T01:41:26;3.97;;;2.75;;
7173;SDS011;3628;48.654;8.932;2023-08-24T01:43:55;3.55;;;2.92;;
7173;SDS011;3628;48.654;8.932;2023-08-24T01:46:23;4.50;;;2.38;;
7173;SDS011;3628;48.654;8.932;2023-08-24T01:48:50;2.97;;;2.78;;
7173;SDS011;3628;48.654;8.932;2023-08-24T01:51:17;4.95;;;2.50;;
7173;SDS011;3628;48.654;8.932;2023-08-24T01:53:44;4.40;;;2.35;;
7173;SDS011;3628;48.654;8.932;2023-08-24T01:56:11;2.35;;;2.15;;
7173;SDS011;3628;48.654;8.932;2023-08-24T01:58:37;3.63;;;2.63;;
7173;SDS011;3628;48.654;8.932;2023-08-24T02:01:04;3.05;;;2.55;;
7173;SDS011;3628;48.654;8.932;2023-08-24T02:03:30;3.47;;;2.35;;
7173;SDS011;3628;48.654;8.932;2023-08-24T02:05:56;3.65;;;2.28;;
7173;SDS011;3628;48.654;8.932;2023-08-24T02:08:22;2.70;;;2.50;;
7173;SDS011;3628;48.654;8.932;2023-08-24T02:10:47;3.75;;;2.78;;
7173;SDS011;3628;48.654;8.932;2023-08-24T02:13:13;2.75;;;2.55;;
7173;SDS011;3628;48.654;8.932;2023-08-24T02:15:38;3.38;;;2.50;;
7173;SDS011;3628;48.654;8.932;2023-08-24T02:18:05;3.22;;;2.67;;
7173;SDS011;3628;48.654;8.932;2023-08-24T02:20:34;3.42;;;3.13;;
7173;SDS011;3628;48.654;8.932;2023-08-24T02:23:00;3.45;;;2.65;;
7173;SDS011;3628;48.654;8.932;2023-08-24T02:25:26;3.50;;;2.35;;
7173;SDS011;3628;48.654;8.932;2023-08-24T02:27:52;3.35;;;2.33;;
7173;SDS011;3628;48.654;8.932;2023-08-24T02:30:18;5.10;;;2.72;;
7173;SDS011;3628;48.654;8.932;2023-08-24T02:32:43;3.50;;;2.40;;
7173;SDS011;3628;48.654;8.932;2023-08-24T02:35:09;3.70;;;2.60;;
7173;SDS011;3628;48.654;8.932;2023-08-24T02:37:34;3.55;;;2.63;;
7173;SDS011;3628;48.654;8.932;2023-08-24T02:40:00;3.28;;;2.58;;
7173;SDS011;3628;48.654;8.932;2023-08-24T02:42:25;3.53;;;2.78;;
7173;SDS011;3628;48.654;8.932;2023-08-24T02:44:52;2.42;;;2.22;;
7173;SDS011;3628;48.654;8.932;2023-08-24T02:47:17;3.83;;;2.70;;
7173;SDS011;3628;48.654;8.932;2023-08-24T02:49:43;4.28;;;2.75;;
7173;SDS011;3628;48.654;8.932;2023-08-24T02:52:08;4.25;;;2.40;;
7173;SDS011;3628;48.654;8.932;2023-08-24T02:54:34;5.10;;;2.70;;
7173;SDS011;3628;48.654;8.932;2023-08-24T02:56:59;3.03;;;2.40;;
7173;SDS011;3628;48.654;8.932;2023-08-24T02:59:25;2.70;;;2.50;;
7173;SDS011;3628;48.654;8.932;2023-08-24T03:01:51;7.60;;;4.07;;
7173;SDS011;3628;48.654;8.932;2023-08-24T03:04:18;9.55;;;3.80;;
7173;SDS011;3628;48.654;8.932;2023-08-24T03:06:44;5.30;;;3.10;;
7173;SDS011;3628;48.654;8.932;2023-08-24T03:09:10;3.78;;;3.17;;
7173;SDS011;3628;48.654;8.932;2023-08-24T03:11:35;5.75;;;3.17;;
7173;SDS011;3628;48.654;8.932;2023-08-24T03:14:01;5.72;;;2.60;;
7173;SDS011;3628;48.654;8.932;2023-08-24T03:16:26;3.40;;;3.10;;
7173;SDS011;3628;48.654;8.932;2023-08-24T03:18:52;3.35;;;2.78;;
7173;SDS011;3628;48.654;8.932;2023-08-24T03:21:17;4.10;;;2.90;;
7173;SDS011;3628;48.654;8.932;2023-08-24T03:23:43;3.22;;;2.67;;
7173;SDS011;3628;48.654;8.932;2023-08-24T03:26:08;2.80;;;2.50;;
7173;SDS011;3628;48.654;8.932;2023-08-24T03:28:34;5.00;;;2.40;;
7173;SDS011;3628;48.654;8.932;2023-08-24T03:30:59;3.17;;;2.67;;
7173;SDS011;3628;48.654;8.932;2023-08-24T03:33:25;6.40;;;2.97;;
7173;SDS011;3628;48.654;8.932;2023-08-24T03:35:52;2.63;;;2.42;;
7173;SDS011;3628;48.654;8.932;2023-08-24T03:38:18;4.55;;;2.80;;
7173;SDS011;3628;48.654;8.932;2023-08-24T03:40:44;4.53;;;3.05;;
7173;SDS011;3628;48.654;8.932;2023-08-24T03:43:10;3.38;;;3.08;;
7173;SDS011;3628;48.654;8.932;2023-08-24T03:45:35;2.65;;;2.45;;
7173;SDS011;3628;48.654;8.932;2023-08-24T03:48:01;4.75;;;2.53;;
7173;SDS011;3628;48.654;8.932;2023-08-24T03:50:27;3.40;;;2.40;;
7173;SDS011;3628;48.654;8.932;2023-08-24T03:52:53;4.13;;;2.90;;
7173;SDS011;3628;48.654;8.932;2023-08-24T03:55:19;4.03;;;3.20;;
7173;SDS011;3628;48.654;8.932;2023-08-24T03:57:45;3.28;;;2.70;;
7173;SDS011;3628;48.654;8.932;2023-08-24T04:00:11;5.35;;;2.72;;
7173;SDS011;3628;48.654;8.932;2023-08-24T04:02:38;3.50;;;2.65;;
7173;SDS011;3628;48.654;8.932;2023-08-24T04:05:04;2.85;;;2.60;;
7173;SDS011;3628;48.654;8.932;2023-08-24T04:07:29;4.22;;;3.08;;
7173;SDS011;3628;48.654;8.932;2023-08-24T04:09:56;2.80;;;2.60;;
7173;SDS011;3628;48.654;8.932;2023-08-24T04:12:21;3.10;;;2.80;;
7173;SDS011;3628;48.654;8.932;2023-08-24T04:14:47;3.67;;;2.75;;
7173;SDS011;3628;48.654;8.932;2023-08-24T04:17:12;4.70;;;2.83;;
7173;SDS011;3628;48.654;8.932;2023-08-24T04:19:38;5.22;;;3.00;;
7173;SDS011;3628;48.654;8.932;2023-08-24T04:22:04;3.47;;;3.00;;
7173;SDS011;3628;48.654;8.932;2023-08-24T04:24:30;3.40;;;2.67;;
7173;SDS011;3628;48.654;8.932;2023-08-24T04:26:55;5.90;;;3.38;;
7173;SDS011;3628;48.654;8.932;2023-08-24T04:29:21;4.07;;;3.63;;
7173;SDS011;3628;48.654;8.932;2023-08-24T04:31:47;5.85;;;2.72;;
7173;SDS011;3628;48.654;8.932;2023-08-24T04:34:12;3.78;;;2.88;;
7173;SDS011;3628;48.654;8.932;2023-08-24T04:36:38;4.97;;;3.33;;
7173;SDS011;3628;48.654;8.932;2023-08-24T04:39:03;3.70;;;2.97;;
7173;SDS011;3628;48.654;8.932;2023-08-24T04:41:29;5.70;;;2.40;;
7173;SDS011;3628;48.654;8.932;2023-08-24T04:43:55;4.38;;;3.22;;
7173;SDS011;3628;48.654;8.932;2023-08-24T04:46:20;6.28;;;2.90;;
7173;SDS011;3628;48.654;8.932;2023-08-24T04:48:46;3.22;;;2.88;;
7173;SDS011;3628;48.654;8.932;2023-08-24T04:51:11;3.00;;;2.70;;
7173;SDS011;3628;48.654;8.932;2023-08-24T04:53:37;3.42;;;2.88;;
7173;SDS011;3628;48.654;8.932;2023-08-24T04:56:03;3.85;;;2.65;;
7173;SDS011;3628;48.654;8.932;2023-08-24T04:58:28;8.27;;;2.72;;
7173;SDS011;3628;48.654;8.932;2023-08-24T05:00:54;3.60;;;2.58;;
7173;SDS011;3628;48.654;8.932;2023-08-24T05:03:20;4.72;;;2.60;;
7173;SDS011;3628;48.654;8.932;2023-08-24T05:05:46;4.35;;;2.55;;
7173;SDS011;3628;48.654;8.932;2023-08-24T05:08:12;4.65;;;2.50;;
7173;SDS011;3628;48.654;8.932;2023-08-24T05:10:38;2.67;;;2.47;;
7173;SDS011;3628;48.654;8.932;2023-08-24T05:13:03;5.93;;;2.90;;
7173;SDS011;3628;48.654;8.932;2023-08-24T05:15:29;4.28;;;2.92;;
7173;SDS011;3628;48.654;8.932;2023-08-24T05:17:55;3.00;;;2.70;;
7173;SDS011;3628;48.654;8.932;2023-08-24T05:20:24;2.83;;;2.55;;
7173;SDS011;3628;48.654;8.932;2023-08-24T05:22:50;4.43;;;3.08;;
7173;SDS011;3628;48.654;8.932;2023-08-24T05:25:16;4.30;;;2.90;;
7173;SDS011;3628;48.654;8.932;2023-08-24T05:27:42;4.60;;;3.05;;
7173;SDS011;3628;48.654;8.932;2023-08-24T05:30:08;4.32;;;2.83;;
7173;SDS011;3628;48.654;8.932;2023-08-24T05:32:34;3.08;;;2.78;;
7173;SDS011;3628;48.654;8.932;2023-08-24T05:35:03;5.70;;;2.88;;
7173;SDS011;3628;48.654;8.932;2023-08-24T05:37:33;3.08;;;2.78;;
7173;SDS011;3628;48.654;8.932;2023-08-24T05:39:59;3.30;;;3.00;;
7173;SDS011;3628;48.654;8.932;2023-08-24T05:42:26;6.78;;;3.40;;
7173;SDS011;3628;48.654;8.932;2023-08-24T05:44:52;8.25;;;2.65;;
7173;SDS011;3628;48.654;8.932;2023-08-24T05:47:17;6.78;;;3.20;;
7173;SDS011;3628;48.654;8.932;2023-08-24T05:49:43;6.10;;;3.28;;
7173;SDS011;3628;48.654;8.932;2023-08-24T05:52:08;5.03;;;2.83;;
7173;SDS011;3628;48.654;8.932;2023-08-24T05:54:36;5.97;;;3.10;;
7173;SDS011;3628;48.654;8.932;2023-08-24T05:57:02;3.63;;;3.20;;
7173;SDS011;3628;48.654;8.932;2023-08-24T05:59:28;6.05;;;2.97;;
7173;SDS011;3628;48.654;8.932;2023-08-24T06:01:54;5.78;;;3.25;;
7173;SDS011;3628;48.654;8.932;2023-08-24T06:04:20;5.18;;;2.97;;
7173;SDS011;3628;48.654;8.932;2023-08-24T06:06:46;3.28;;;2.97;;
7173;SDS011;3628;48.654;8.932;2023-08-24T06:09:11;5.30;;;3.30;;
7173;SDS011;3628;48.654;8.932;2023-08-24T06:11:37;3.03;;;2.83;;
7173;SDS011;3628;48.654;8.932;2023-08-24T06:14:03;11.00;;;3.03;;
7173;SDS011;3628;48.654;8.932;2023-08-24T06:16:28;5.55;;;2.97;;
7173;SDS011;3628;48.654;8.932;2023-08-24T06:18:54;4.22;;;2.88;;
7173;SDS011;3628;48.654;8.932;2023-08-24T06:21:20;5.65;;;3.17;;
7173;SDS011;3628;48.654;8.932;2023-08-24T06:23:45;4.95;;;3.35;;
7173;SDS011;3628;48.654;8.932;2023-08-24T06:26:12;5.22;;;3.35;;
7173;SDS011;3628;48.654;8.932;2023-08-24T06:28:38;4.45;;;2.92;;
7173;SDS011;3628;48.654;8.932;2023-08-24T06:31:04;3.40;;;2.95;;
7173;SDS011;3628;48.654;8.932;2023-08-24T06:33:33;4.72;;;3.08;;
7173;SDS011;3628;48.654;8.932;2023-08-24T06:35:59;7.07;;;3.10;;
7173;SDS011;3628;48.654;8.932;2023-08-24T06:38:26;6.82;;;3.22;;
7173;SDS011;3628;48.654;8.932;2023-08-24T06:40:51;6.03;;;2.97;;
7173;SDS011;3628;48.654;8.932;2023-08-24T06:43:17;10.68;;;3.47;;
7173;SDS011;3628;48.654;8.932;2023-08-24T06:45:46;6.25;;;3.38;;
7173;SDS011;3628;48.654;8.932;2023-08-24T06:48:11;7.70;;;2.85;;
7173;SDS011;3628;48.654;8.932;2023-08-24T06:50:37;5.22;;;3.03;;
7173;SDS011;3628;48.654;8.932;2023-08-24T06:53:03;8.32;;;3.10;;
7173;SDS011;3628;48.654;8.932;2023-08-24T06:55:29;7.63;;;3.10;;
7173;SDS011;3628;48.654;8.932;2023-08-24T06:57:55;12.45;;;2.88;;
7173;SDS011;3628;48.654;8.932;2023-08-24T07:00:20;16.33;;;3.38;;
7173;SDS011;3628;48.654;8.932;2023-08-24T07:02:47;14.43;;;3.67;;
7173;SDS011;3628;48.654;8.932;2023-08-24T07:05:13;6.82;;;3.03;;
7173;SDS011;3628;48.654;8.932;2023-08-24T07:07:38;6.35;;;3.13;;
7173;SDS011;3628;48.654;8.932;2023-08-24T07:10:05;5.63;;;2.90;;
7173;SDS011;3628;48.654;8.932;2023-08-24T07:12:31;5.90;;;3.45;;
7173;SDS011;3628;48.654;8.932;2023-08-24T07:14:57;12.30;;;3.10;;
7173;SDS011;3628;48.654;8.932;2023-08-24T07:17:22;5.95;;;3.25;;
7173;SDS011;3628;48.654;8.932;2023-08-24T07:19:48;5.47;;;2.83;;
7173;SDS011;3628;48.654;8.932;2023-08-24T07:22:13;2.97;;;2.78;;
7173;SDS011;3628;48.654;8.932;2023-08-24T07:24:39;7.03;;;2.67;;
7173;SDS011;3628;48.654;8.932;2023-08-24T07:27:04;5.25;;;2.78;;
7173;SDS011;3628;48.654;8.932;2023-08-24T07:29:30;3.65;;;2.40;;
7173;SDS011;3628;48.654;8.932;2023-08-24T07:31:56;4.10;;;2.65;;
7173;SDS011;3628;48.654;8.932;2023-08-24T07:34:22;3.10;;;2.50;;
7173;SDS011;3628;48.654;8.932;2023-08-24T07:36:47;4.05;;;2.88;;
7173;SDS011;3628;48.654;8.932;2023-08-24T07:39:14;4.43;;;2.58;;
7173;SDS011;3628;48.654;8.932;2023-08-24T07:41:43;4.82;;;2.45;;
7173;SDS011;3628;48.654;8.932;2023-08-24T07:44:10;3.13;;;2.65;;
7173;SDS011;3628;48.654;8.932;2023-08-24T07:46:35;3.67;;;2.53;;
7173;SDS011;3628;48.654;8.932;2023-08-24T07:49:03;3.90;;;2.78;;
7173;SDS011;3628;48.654;8.932;2023-08-24T07:51:29;3.35;;;2.45;;
7173;SDS011;3628;48.654;8.932;2023-08-24T07:53:55;5.40;;;2.65;;
7173;SDS011;3628;48.654;8.932;2023-08-24T07:56:20;4.53;;;2.50;;
7173;SDS011;3628;48.654;8.932;2023-08-24T07:58:47;4.20;;;2.10;;
7173;SDS011;3628;48.654;8.932;2023-08-24T08:01:13;5.40;;;2.65;;
7173;SDS011;3628;48.654;8.932;2023-08-24T08:03:38;6.50;;;2.53;;
7173;SDS011;3628;48.654;8.932;2023-08-24T08:06:04;6.50;;;2.47;;
7173;SDS011;3628;48.654;8.932;2023-08-24T08:08:30;3.97;;;2.60;;
7173;SDS011;3628;48.654;8.932;2023-08-24T08:10:59;3.60;;;2.30;;
7173;SDS011;3628;48.654;8.932;2023-08-24T08:13:25;7.32;;;2.25;;
7173;SDS011;3628;48.654;8.932;2023-08-24T08:15:51;6.18;;;2.40;;
7173;SDS011;3628;48.654;8.932;2023-08-24T08:18:17;6.30;;;2.30;;
7173;SDS011;3628;48.654;8.932;2023-08-24T08:20:42;5.03;;;2.80;;
7173;SDS011;3628;48.654;8.932;2023-08-24T08:23:08;14.88;;;2.92;;
7173;SDS011;3628;48.654;8.932;2023-08-24T08:25:33;6.63;;;2.80;;
7173;SDS011;3628;48.654;8.932;2023-08-24T08:27:59;4.20;;;2.63;;
7173;SDS011;3628;48.654;8.932;2023-08-24T08:30:24;6.70;;;2.55;;
7173;SDS011;3628;48.654;8.932;2023-08-24T08:32:50;8.38;;;2.50;;
7173;SDS011;3628;48.654;8.932;2023-08-24T08:35:17;6.28;;;2.60;;
7173;SDS011;3628;48.654;8.932;2023-08-24T08:37:47;4.28;;;2.80;;
7173;SDS011;3628;48.654;8.932;2023-08-24T08:40:14;5.13;;;2.30;;
7173;SDS011;3628;48.654;8.932;2023-08-24T08:42:42;3.97;;;2.60;;
7173;SDS011;3628;48.654;8.932;2023-08-24T08:45:09;3.45;;;2.45;;
7173;SDS011;3628;48.654;8.932;2023-08-24T08:47:35;6.78;;;2.67;;
7173;SDS011;3628;48.654;8.932;2023-08-24T08:50:01;4.82;;;2.65;;
7173;SDS011;3628;48.654;8.932;2023-08-24T08:52:28;5.90;;;2.67;;
7173;SDS011;3628;48.654;8.932;2023-08-24T08:54:54;5.60;;;2.47;;
7173;SDS011;3628;48.654;8.932;2023-08-24T08:57:20;8.50;;;2.40;;
7173;SDS011;3628;48.654;8.932;2023-08-24T08:59:49;7.63;;;2.53;;
7173;SDS011;3628;48.654;8.932;2023-08-24T09:02:17;3.88;;;2.38;;
7173;SDS011;3628;48.654;8.932;2023-08-24T09:04:44;3.92;;;2.35;;
7173;SDS011;3628;48.654;8.932;2023-08-24T09:07:12;4.70;;;2.53;;
7173;SDS011;3628;48.654;8.932;2023-08-24T09:09:39;5.95;;;2.65;;
7173;SDS011;3628;48.654;8.932;2023-08-24T09:12:05;5.45;;;2.30;;
7173;SDS011;3628;48.654;8.932;2023-08-24T09:14:32;4.22;;;2.30;;
7173;SDS011;3628;48.654;8.932;2023-08-24T09:16:58;4.03;;;2.33;;
7173;SDS011;3628;48.654;8.932;2023-08-24T09:19:30;3.80;;;2.28;;
7173;SDS011;3628;48.654;8.932;2023-08-24T09:22:03;4.40;;;2.00;;
7173;SDS011;3628;48.654;8.932;2023-08-24T09:24:33;2.63;;;2.40;;
7173;SDS011;3628;48.654;8.932;2023-08-24T09:27:00;3.65;;;2.30;;
7173;SDS011;3628;48.654;8.932;2023-08-24T09:29:38;4.07;;;2.30;;
7173;SDS011;3628;48.654;8.932;2023-08-24T09:32:05;4.50;;;2.15;;
7173;SDS011;3628;48.654;8.932;2023-08-24T09:34:33;3.40;;;2.20;;
7173;SDS011;3628;48.654;8.932;2023-08-24T09:36:58;3.75;;;2.22;;
7173;SDS011;3628;48.654;8.932;2023-08-24T09:39:24;3.30;;;2.33;;
7173;SDS011;3628;48.654;8.932;2023-08-24T09:41:50;3.90;;;2.20;;
7173;SDS011;3628;48.654;8.932;2023-08-24T09:44:19;2.97;;;2.40;;
7173;SDS011;3628;48.654;8.932;2023-08-24T09:46:45;6.35;;;2.50;;
7173;SDS011;3628;48.654;8.932;2023-08-24T09:49:11;4.40;;;2.50;;
7173;SDS011;3628;48.654;8.932;2023-08-24T09:51:37;4.47;;;2.35;;
7173;SDS011;3628;48.654;8.932;2023-08-24T09:54:08;5.10;;;2.28;;
7173;SDS011;3628;48.654;8.932;2023-08-24T09:56:35;4.32;;;2.45;;
7173;SDS011;3628;48.654;8.932;2023-08-24T09:59:12;3.03;;;2.47;;
7173;SDS011;3628;48.654;8.932;2023-08-24T10:01:42;4.97;;;2.42;;
7173;SDS011;3628;48.654;8.932;2023-08-24T10:04:09;2.75;;;2.55;;
7173;SDS011;3628;48.654;8.932;2023-08-24T10:06:37;3.03;;;2.15;;
7173;SDS011;3628;48.654;8.932;2023-08-24T10:09:05;6.25;;;2.50;;
7173;SDS011;3628;48.654;8.932;2023-08-24T10:11:34;7.80;;;2.75;;
7173;SDS011;3628;48.654;8.932;2023-08-24T10:14:50;7.20;;;2.50;;
7173;SDS011;3628;48.654;8.932;2023-08-24T10:17:00;5.20;;;2.65;;
7173;SDS011;3628;48.654;8.932;2023-08-24T10:19:26;4.22;;;2.42;;
7173;SDS011;3628;48.654;8.932;2023-08-24T10:21:54;4.63;;;2.38;;
7173;SDS011;3628;48.654;8.932;2023-08-24T10:24:22;4.53;;;2.47;;
7173;SDS011;3628;48.654;8.932;2023-08-24T10:26:48;4.68;;;2.50;;
7173;SDS011;3628;48.654;8.932;2023-08-24T10:29:14;3.38;;;2.60;;
7173;SDS011;3628;48.654;8.932;2023-08-24T10:31:41;5.60;;;2.70;;
7173;SDS011;3628;48.654;8.932;2023-08-24T10:34:08;3.58;;;2.53;;
7173;SDS011;3628;48.654;8.932;2023-08-24T10:36:34;6.53;;;2.72;;
7173;SDS011;3628;48.654;8.932;2023-08-24T10:39:03;4.88;;;2.30;;
7173;SDS011;3628;48.654;8.932;2023-08-24T10:41:50;6.13;;;2.70;;
7173;SDS011;3628;48.654;8.932;2023-08-24T10:44:36;3.15;;;2.58;;
7173;SDS011;3628;48.654;8.932;2023-08-24T10:47:06;4.07;;;2.70;;
7173;SDS011;3628;48.654;8.932;2023-08-24T10:49:38;4.18;;;2.63;;
7173;SDS011;3628;48.654;8.932;2023-08-24T10:52:16;3.75;;;2.92;;
7173;SDS011;3628;48.654;8.932;2023-08-24T10:54:43;3.40;;;2.55;;
7173;SDS011;3628;48.654;8.932;2023-08-24T10:57:17;3.63;;;2.70;;
7173;SDS011;3628;48.654;8.932;2023-08-24T11:00:13;4.30;;;2.90;;
7173;SDS011;3628;48.654;8.932;2023-08-24T11:02:46;6.03;;;2.80;;
7173;SDS011;3628;48.654;8.932;2023-08-24T11:05:17;4.75;;;2.55;;
7173;SDS011;3628;48.654;8.932;2023-08-24T11:10:17;4.75;;;2.83;;
7173;SDS011;3628;48.654;8.932;2023-08-24T11:15:31;5.95;;;2.97;;
7173;SDS011;3628;48.654;8.932;2023-08-24T11:18:19;3.22;;;2.90;;
7173;SDS011;3628;48.654;8.932;2023-08-24T11:20:53;6.95;;;2.80;;
7173;SDS011;3628;48.654;8.932;2023-08-24T11:23:25;4.50;;;3.00;;
7173;SDS011;3628;48.654;8.932;2023-08-24T11:25:51;2.70;;;2.50;;
7173;SDS011;3628;48.654;8.932;2023-08-24T11:28:20;6.13;;;2.85;;
7173;SDS011;3628;48.654;8.932;2023-08-24T11:30:46;7.30;;;3.17;;
7173;SDS011;3628;48.654;8.932;2023-08-24T11:33:12;4.78;;;3.08;;
7173;SDS011;3628;48.654;8.932;2023-08-24T11:35:42;4.22;;;2.75;;
7173;SDS011;3628;48.654;8.932;2023-08-24T11:38:09;4.18;;;2.65;;
7173;SDS011;3628;48.654;8.932;2023-08-24T11:40:35;6.22;;;3.10;;
7173;SDS011;3628;48.654;8.932;2023-08-24T11:43:01;5.85;;;2.92;;
7173;SDS011;3628;48.654;8.932;2023-08-24T11:45:30;4.38;;;3.20;;
7173;SDS011;3628;48.654;8.932;2023-08-24T11:47:58;7.00;;;3.08;;
7173;SDS011;3628;48.654;8.932;2023-08-24T11:50:26;4.93;;;2.70;;
7173;SDS011;3628;48.654;8.932;2023-08-24T11:52:52;5.60;;;3.10;;
7173;SDS011;3628;48.654;8.932;2023-08-24T11:55:18;5.20;;;2.78;;
7173;SDS011;3628;48.654;8.932;2023-08-24T11:57:46;6.10;;;2.88;;
7173;SDS011;3628;48.654;8.932;2023-08-24T12:00:12;4.57;;;2.88;;
7173;SDS011;3628;48.654;8.932;2023-08-24T12:02:39;7.65;;;3.03;;
7173;SDS011;3628;48.654;8.932;2023-08-24T12:05:06;5.80;;;2.80;;
7173;SDS011;3628;48.654;8.932;2023-08-24T12:07:32;5.70;;;2.65;;
7173;SDS011;3628;48.654;8.932;2023-08-24T12:10:01;5.70;;;3.22;;
7173;SDS011;3628;48.654;8.932;2023-08-24T12:12:27;4.30;;;3.35;;
7173;SDS011;3628;48.654;8.932;2023-08-24T12:14:54;5.63;;;3.00;;
7173;SDS011;3628;48.654;8.932;2023-08-24T12:17:20;7.10;;;3.17;;
7173;SDS011;3628;48.654;8.932;2023-08-24T12:19:56;7.72;;;3.35;;
7173;SDS011;3628;48.654;8.932;2023-08-24T12:22:24;4.90;;;3.13;;
7173;SDS011;3628;48.654;8.932;2023-08-24T12:24:49;6.45;;;2.90;;
7173;SDS011;3628;48.654;8.932;2023-08-24T12:27:24;5.25;;;2.70;;
7173;SDS011;3628;48.654;8.932;2023-08-24T12:29:51;6.85;;;3.03;;
7173;SDS011;3628;48.654;8.932;2023-08-24T12:32:17;8.93;;;3.00;;
7173;SDS011;3628;48.654;8.932;2023-08-24T12:34:50;5.90;;;2.85;;
7173;SDS011;3628;48.654;8.932;2023-08-24T12:37:19;8.55;;;2.97;;
7173;SDS011;3628;48.654;8.932;2023-08-24T12:39:45;6.45;;;2.92;;
7173;SDS011;3628;48.654;8.932;2023-08-24T12:42:11;4.55;;;3.00;;
7173;SDS011;3628;48.654;8.932;2023-08-24T12:44:36;4.57;;;2.80;;
7173;SDS011;3628;48.654;8.932;2023-08-24T12:47:02;5.55;;;3.03;;
7173;SDS011;3628;48.654;8.932;2023-08-24T12:49:28;8.15;;;2.97;;
7173;SDS011;3628;48.654;8.932;2023-08-24T12:51:54;4.10;;;2.83;;
7173;SDS011;3628;48.654;8.932;2023-08-24T12:54:19;4.97;;;3.00;;
7173;SDS011;3628;48.654;8.932;2023-08-24T12:56:45;9.25;;;3.08;;
7173;SDS011;3628;48.654;8.932;2023-08-24T12:59:11;5.22;;;3.00;;
7173;SDS011;3628;48.654;8.932;2023-08-24T13:01:37;7.75;;;3.13;;
7173;SDS011;3628;48.654;8.932;2023-08-24T13:04:03;5.55;;;3.05;;
7173;SDS011;3628;48.654;8.932;2023-08-24T13:06:29;11.60;;;2.78;;
7173;SDS011;3628;48.654;8.932;2023-08-24T13:08:54;8.15;;;2.90;;
7173;SDS011;3628;48.654;8.932;2023-08-24T13:11:21;11.05;;;3.10;;
7173;SDS011;3628;48.654;8.932;2023-08-24T13:13:47;10.85;;;2.72;;
7173;SDS011;3628;48.654;8.932;2023-08-24T13:16:12;7.30;;;3.03;;
7173;SDS011;3628;48.654;8.932;2023-08-24T13:18:38;9.02;;;3.17;;
7173;SDS011;3628;48.654;8.932;2023-08-24T13:21:03;7.00;;;2.67;;
7173;SDS011;3628;48.654;8.932;2023-08-24T13:23:29;6.68;;;3.03;;
7173;SDS011;3628;48.654;8.932;2023-08-24T13:25:57;11.15;;;3.28;;
7173;SDS011;3628;48.654;8.932;2023-08-24T13:28:23;10.90;;;3.10;;
7173;SDS011;3628;48.654;8.932;2023-08-24T13:30:48;6.28;;;2.92;;
7173;SDS011;3628;48.654;8.932;2023-08-24T13:33:14;9.20;;;2.80;;
7173;SDS011;3628;48.654;8.932;2023-08-24T13:35:40;10.02;;;3.20;;
7173;SDS011;3628;48.654;8.932;2023-08-24T13:38:05;6.28;;;3.22;;
7173;SDS011;3628;48.654;8.932;2023-08-24T13:40:31;8.05;;;3.17;;
7173;SDS011;3628;48.654;8.932;2023-08-24T13:42:57;4.88;;;2.80;;
7173;SDS011;3628;48.654;8.932;2023-08-24T13:45:22;4.38;;;2.42;;
7173;SDS011;3628;48.654;8.932;2023-08-24T13:47:48;6.57;;;2.75;;
7173;SDS011;3628;48.654;8.932;2023-08-24T13:50:13;6.00;;;3.20;;
7173;SDS011;3628;48.654;8.932;2023-08-24T13:52:39;9.52;;;3.05;;
7173;SDS011;3628;48.654;8.932;2023-08-24T13:55:04;7.50;;;3.15;;
7173;SDS011;3628;48.654;8.932;2023-08-24T13:57:30;9.27;;;3.10;;
7173;SDS011;3628;48.654;8.932;2023-08-24T13:59:56;6.53;;;3.22;;
7173;SDS011;3628;48.654;8.932;2023-08-24T14:02:21;9.55;;;3.33;;
7173;SDS011;3628;48.654;8.932;2023-08-24T14:04:47;9.45;;;3.10;;
7173;SDS011;3628;48.654;8.932;2023-08-24T14:07:12;6.47;;;3.30;;
7173;SDS011;3628;48.654;8.932;2023-08-24T14:09:38;6.18;;;2.75;;
7173;SDS011;3628;48.654;8.932;2023-08-24T14:12:03;7.15;;;2.75;;
7173;SDS011;3628;48.654;8.932;2023-08-24T14:14:29;6.93;;;2.88;;
7173;SDS011;3628;48.654;8.932;2023-08-24T14:16:55;10.23;;;2.92;;
7173;SDS011;3628;48.654;8.932;2023-08-24T14:19:21;6.65;;;2.70;;
7173;SDS011;3628;48.654;8.932;2023-08-24T14:21:48;7.28;;;2.90;;
7173;SDS011;3628;48.654;8.932;2023-08-24T14:24:13;9.15;;;3.15;;
7173;SDS011;3628;48.654;8.932;2023-08-24T14:26:39;7.75;;;3.13;;
7173;SDS011;3628;48.654;8.932;2023-08-24T14:29:10;7.93;;;2.80;;
7173;SDS011;3628;48.654;8.932;2023-08-24T14:31:36;8.38;;;3.00;;
7173;SDS011;3628;48.654;8.932;2023-08-24T14:34:01;11.02;;;3.25;;
7173;SDS011;3628;48.654;8.932;2023-08-24T14:36:28;9.98;;;3.35;;
7173;SDS011;3628;48.654;8.932;2023-08-24T14:38:54;6.65;;;2.88;;
7173;SDS011;3628;48.654;8.932;2023-08-24T14:41:20;7.55;;;3.20;;
7173;SDS011;3628;48.654;8.932;2023-08-24T14:43:45;6.03;;;3.10;;
7173;SDS011;3628;48.654;8.932;2023-08-24T14:46:12;12.38;;;3.50;;
7173;SDS011;3628;48.654;8.932;2023-08-24T14:48:38;14.27;;;4.00;;
7173;SDS011;3628;48.654;8.932;2023-08-24T14:51:04;10.48;;;3.60;;
7173;SDS011;3628;48.654;8.932;2023-08-24T14:53:30;12.10;;;3.60;;
7173;SDS011;3628;48.654;8.932;2023-08-24T14:55:56;14.32;;;3.38;;
7173;SDS011;3628;48.654;8.932;2023-08-24T14:58:23;9.48;;;3.55;;
7173;SDS011;3628;48.654;8.932;2023-08-24T15:00:50;5.70;;;3.50;;
7173;SDS011;3628;48.654;8.932;2023-08-24T15:03:16;7.93;;;3.78;;
7173;SDS011;3628;48.654;8.932;2023-08-24T15:05:46;6.88;;;4.00;;
7173;SDS011;3628;48.654;8.932;2023-08-24T15:08:21;3.50;;;3.20;;
7173;SDS011;3628;48.654;8.932;2023-08-24T15:10:47;5.38;;;4.05;;
7173;SDS011;3628;48.654;8.932;2023-08-24T15:13:13;5.32;;;3.88;;
7173;SDS011;3628;48.654;8.932;2023-08-24T15:15:39;6.13;;;3.90;;
7173;SDS011;3628;48.654;8.932;2023-08-24T15:18:05;4.85;;;3.67;;
7173;SDS011;3628;48.654;8.932;2023-08-24T15:20:30;6.05;;;3.75;;